createdAt,value
2019-03-30T00:00:19.790Z,5.8
2019-03-30T00:01:19.803Z,5.8
2019-03-30T00:02:19.850Z,5.8
2019-03-30T00:03:19.899Z,5.8
2019-03-30T00:04:20.005Z,5.8
2019-03-30T00:05:20.021Z,5.8
2019-03-30T00:06:20.121Z,5.8
2019-03-30T00:07:20.122Z,5.8
2019-03-30T00:08:20.134Z,5.8
2019-03-30T00:09:20.243Z,5.8
2019-03-30T00:10:20.260Z,5.8
2019-03-30T00:11:20.333Z,5.8
2019-03-30T00:12:23.005Z,5.8
2019-03-30T00:13:20.499Z,5.8
2019-03-30T00:14:20.499Z,5.8
2019-03-30T00:15:20.570Z,5.8
2019-03-30T00:16:20.605Z,5.8
2019-03-30T00:17:20.645Z,5.8
2019-03-30T00:18:20.725Z,5.8
2019-03-30T00:19:34.057Z,5.8
2019-03-30T00:20:20.823Z,5.8
2019-03-30T00:21:20.837Z,5.8
2019-03-30T00:22:20.877Z,5.8
2019-03-30T00:23:20.937Z,5.8
2019-03-30T00:24:21.022Z,5.8
2019-03-30T00:25:21.083Z,5.8
2019-03-30T00:26:21.126Z,5.8
2019-03-30T00:27:21.152Z,5.8
2019-03-30T00:28:21.287Z,5.8
2019-03-30T00:29:21.289Z,5.8
2019-03-30T00:30:21.487Z,5.8
2019-03-30T00:31:21.376Z,5.8
2019-03-30T00:32:21.426Z,5.8
2019-03-30T00:33:21.452Z,5.8
2019-03-30T00:34:21.533Z,5.8
2019-03-30T00:35:21.583Z,5.7
2019-03-30T00:36:21.612Z,5.7
2019-03-30T00:37:21.656Z,5.7
2019-03-30T00:38:21.734Z,5.7
2019-03-30T00:39:21.813Z,5.7
2019-03-30T00:40:21.860Z,5.7
2019-03-30T00:41:21.960Z,5.7
2019-03-30T00:42:22.021Z,5.7
2019-03-30T00:43:22.053Z,5.7
2019-03-30T00:44:22.171Z,5.7
2019-03-30T00:45:22.233Z,5.7
2019-03-30T00:46:22.299Z,5.7
2019-03-30T00:47:22.310Z,5.7
2019-03-30T00:48:22.371Z,5.7
2019-03-30T00:49:22.445Z,5.7
2019-03-30T00:50:22.481Z,5.7
2019-03-30T00:51:22.550Z,5.7
2019-03-30T00:52:22.570Z,5.8
2019-03-30T00:53:22.635Z,5.7
2019-03-30T00:54:22.660Z,5.8
2019-03-30T00:55:22.733Z,5.8
2019-03-30T00:56:22.776Z,5.8
2019-03-30T00:57:23.081Z,5.7
2019-03-30T00:58:25.574Z,5.7
2019-03-30T00:59:22.931Z,5.7
2019-03-30T01:00:23.015Z,5.7
2019-03-30T01:01:23.486Z,5.7
2019-03-30T01:02:23.100Z,5.7
2019-03-30T01:03:23.186Z,5.7
2019-03-30T01:04:23.190Z,5.7
2019-03-30T01:05:23.282Z,5.7
2019-03-30T01:06:23.336Z,5.7
2019-03-30T01:07:23.475Z,5.7
2019-03-30T01:08:23.651Z,5.7
2019-03-30T01:09:23.530Z,5.7
2019-03-30T01:10:23.579Z,5.7
2019-03-30T01:11:23.651Z,5.7
2019-03-30T01:12:23.692Z,5.7
2019-03-30T01:13:23.746Z,5.7
2019-03-30T01:14:23.780Z,5.7
2019-03-30T01:15:24.052Z,5.7
2019-03-30T01:16:23.910Z,5.7
2019-03-30T01:17:24.328Z,5.6
2019-03-30T01:18:24.545Z,5.6
2019-03-30T01:19:24.012Z,5.6
2019-03-30T01:20:24.120Z,5.6
2019-03-30T01:21:24.186Z,5.6
2019-03-30T01:22:24.703Z,5.6
2019-03-30T01:23:24.338Z,5.6
2019-03-30T01:24:24.644Z,5.6
2019-03-30T01:25:24.365Z,5.6
2019-03-30T01:26:24.424Z,5.6
2019-03-30T01:27:24.551Z,5.6
2019-03-30T01:28:24.916Z,5.6
2019-03-30T01:29:24.726Z,5.6
2019-03-30T01:30:24.682Z,5.6
2019-03-30T01:31:24.890Z,5.6
2019-03-30T01:32:25.124Z,5.6
2019-03-30T01:33:25.321Z,5.6
2019-03-30T01:34:24.837Z,5.6
2019-03-30T01:35:25.291Z,5.6
2019-03-30T01:36:25.730Z,5.6
2019-03-30T01:37:26.013Z,5.6
2019-03-30T01:38:26.090Z,5.6
2019-03-30T01:39:26.268Z,5.6
2019-03-30T01:40:26.479Z,5.6
2019-03-30T01:41:26.530Z,5.6
2019-03-30T01:42:26.766Z,5.6
2019-03-30T01:43:25.490Z,5.6
2019-03-30T01:44:26.534Z,5.6
2019-03-30T01:45:26.410Z,5.6
2019-03-30T01:46:27.080Z,5.5
2019-03-30T01:47:26.627Z,5.5
2019-03-30T01:48:27.782Z,5.5
2019-03-30T01:49:27.737Z,5.5
2019-03-30T01:50:27.920Z,5.5
2019-03-30T01:51:28.090Z,5.5
2019-03-30T01:52:27.954Z,5.5
2019-03-30T01:53:28.448Z,5.5
2019-03-30T01:54:26.068Z,5.5
2019-03-30T01:55:27.702Z,5.5
2019-03-30T01:56:27.593Z,5.5
2019-03-30T01:57:26.097Z,5.5
2019-03-30T01:58:27.740Z,5.4
2019-03-30T01:59:27.568Z,5.4
2019-03-30T02:00:27.523Z,5.4
2019-03-30T02:01:28.325Z,5.4
2019-03-30T02:02:28.127Z,5.4
2019-03-30T02:03:26.418Z,5.4
2019-03-30T02:04:26.465Z,5.4
2019-03-30T02:05:26.507Z,5.4
2019-03-30T02:06:26.595Z,5.4
2019-03-30T02:07:26.892Z,5.4
2019-03-30T02:08:26.781Z,5.4
2019-03-30T02:09:26.814Z,5.4
2019-03-30T02:10:27.069Z,5.4
2019-03-30T02:11:26.856Z,5.4
2019-03-30T02:12:26.895Z,5.4
2019-03-30T02:13:26.947Z,5.4
2019-03-30T02:14:26.986Z,5.4
2019-03-30T02:15:27.104Z,5.4
2019-03-30T02:16:27.115Z,5.4
2019-03-30T02:17:27.148Z,5.4
2019-03-30T02:18:27.211Z,5.3
2019-03-30T02:19:27.274Z,5.3
2019-03-30T02:20:30.730Z,5.3
2019-03-30T02:21:27.410Z,5.3
2019-03-30T02:22:27.439Z,5.3
2019-03-30T02:23:27.506Z,5.3
2019-03-30T02:24:27.502Z,5.3
2019-03-30T02:25:27.586Z,5.3
2019-03-30T02:26:27.641Z,5.3
2019-03-30T02:27:27.666Z,5.3
2019-03-30T02:28:27.743Z,5.3
2019-03-30T02:29:27.805Z,5.3
2019-03-30T02:30:27.898Z,5.3
2019-03-30T02:31:27.896Z,5.3
2019-03-30T02:32:27.965Z,5.3
2019-03-30T02:33:28.007Z,5.3
2019-03-30T02:34:28.040Z,5.3
2019-03-30T02:35:28.132Z,5.3
2019-03-30T02:36:28.183Z,5.3
2019-03-30T02:37:28.187Z,5.3
2019-03-30T02:38:28.268Z,5.3
2019-03-30T02:39:28.333Z,5.3
2019-03-30T02:40:28.437Z,5.3
2019-03-30T02:41:28.448Z,5.3
2019-03-30T02:42:28.631Z,5.3
2019-03-30T02:43:28.573Z,5.3
2019-03-30T02:44:28.613Z,5.3
2019-03-30T02:45:28.700Z,5.3
2019-03-30T02:46:28.721Z,5.3
2019-03-30T02:47:28.763Z,5.4
2019-03-30T02:48:28.829Z,5.4
2019-03-30T02:49:28.901Z,5.3
2019-03-30T02:50:28.951Z,5.3
2019-03-30T02:51:29.084Z,5.3
2019-03-30T02:52:29.146Z,5.3
2019-03-30T02:53:29.066Z,5.3
2019-03-30T02:54:29.162Z,5.3
2019-03-30T02:55:29.601Z,5.3
2019-03-30T02:56:29.248Z,5.3
2019-03-30T02:57:29.321Z,5.3
2019-03-30T02:58:29.375Z,5.3
2019-03-30T02:59:29.787Z,5.3
2019-03-30T03:00:29.870Z,5.3
2019-03-30T03:01:29.501Z,5.3
2019-03-30T03:02:29.567Z,5.3
2019-03-30T03:03:29.599Z,5.3
2019-03-30T03:04:29.794Z,5.3
2019-03-30T03:05:29.765Z,5.3
2019-03-30T03:06:29.785Z,5.3
2019-03-30T03:07:29.857Z,5.3
2019-03-30T03:08:29.922Z,5.3
2019-03-30T03:09:29.982Z,5.3
2019-03-30T03:10:30.023Z,5.3
2019-03-30T03:11:30.101Z,5.3
2019-03-30T03:12:30.144Z,5.3
2019-03-30T03:13:30.203Z,5.3
2019-03-30T03:14:30.246Z,5.3
2019-03-30T03:15:30.324Z,5.3
2019-03-30T03:16:30.357Z,5.3
2019-03-30T03:17:30.414Z,5.3
2019-03-30T03:18:30.479Z,5.3
2019-03-30T03:19:30.543Z,5.3
2019-03-30T03:20:30.627Z,5.3
2019-03-30T03:21:30.633Z,5.3
2019-03-30T03:22:30.744Z,5.3
2019-03-30T03:23:30.788Z,5.3
2019-03-30T03:24:30.846Z,5.3
2019-03-30T03:25:30.925Z,5.3
2019-03-30T03:26:30.974Z,5.3
2019-03-30T03:27:31.032Z,5.3
2019-03-30T03:28:31.089Z,5.3
2019-03-30T03:29:31.149Z,5.3
2019-03-30T03:30:31.240Z,5.3
2019-03-30T03:31:31.242Z,5.3
2019-03-30T03:32:31.256Z,5.3
2019-03-30T03:33:31.277Z,5.3
2019-03-30T03:34:31.345Z,5.3
2019-03-30T03:35:31.453Z,5.3
2019-03-30T03:36:31.495Z,5.3
2019-03-30T03:37:44.395Z,5.3
2019-03-30T03:38:31.611Z,5.3
2019-03-30T03:39:31.681Z,5.3
2019-03-30T03:40:31.818Z,5.3
2019-03-30T03:41:31.767Z,5.3
2019-03-30T03:42:31.840Z,5.3
2019-03-30T03:43:31.909Z,5.3
2019-03-30T03:44:31.974Z,5.3
2019-03-30T03:45:32.092Z,5.3
2019-03-30T03:46:32.135Z,5.3
2019-03-30T03:47:32.171Z,5.3
2019-03-30T03:48:32.249Z,5.3
2019-03-30T03:49:32.389Z,5.3
2019-03-30T03:50:32.389Z,5.3
2019-03-30T03:51:32.432Z,5.3
2019-03-30T03:52:32.500Z,5.3
2019-03-30T03:53:32.505Z,5.3
2019-03-30T03:54:32.577Z,5.3
2019-03-30T03:55:32.629Z,5.2
2019-03-30T03:56:32.695Z,5.2
2019-03-30T03:57:32.727Z,5.2
2019-03-30T03:58:32.780Z,5.2
2019-03-30T03:59:32.782Z,5.2
2019-03-30T04:00:32.889Z,5.2
2019-03-30T04:01:32.898Z,5.2
2019-03-30T04:02:32.956Z,5.2
2019-03-30T04:03:33.001Z,5.2
2019-03-30T04:04:33.058Z,5.2
2019-03-30T04:05:33.108Z,5.2
2019-03-30T04:06:33.157Z,5.2
2019-03-30T04:07:33.228Z,5.1
2019-03-30T04:08:33.292Z,5.1
2019-03-30T04:09:33.391Z,5.1
2019-03-30T04:10:33.408Z,5.1
2019-03-30T04:11:33.451Z,5.1
2019-03-30T04:12:33.517Z,5.1
2019-03-30T04:13:33.552Z,5.1
2019-03-30T04:14:33.641Z,5.1
2019-03-30T04:15:33.720Z,5.1
2019-03-30T04:16:33.713Z,5.1
2019-03-30T04:17:33.797Z,5.1
2019-03-30T04:18:33.850Z,5.1
2019-03-30T04:19:33.889Z,5.1
2019-03-30T04:20:33.963Z,5.1
2019-03-30T04:21:43.365Z,5.1
2019-03-30T04:22:34.093Z,5.1
2019-03-30T04:23:34.073Z,5.1
2019-03-30T04:24:34.159Z,5.1
2019-03-30T04:25:34.256Z,5.1
2019-03-30T04:26:34.223Z,5.1
2019-03-30T04:27:34.304Z,5.1
2019-03-30T04:28:34.317Z,5.1
2019-03-30T04:29:34.379Z,5.1
2019-03-30T04:30:34.470Z,5.1
2019-03-30T04:31:34.703Z,5.1
2019-03-30T04:32:34.782Z,5.1
2019-03-30T04:33:34.628Z,5.1
2019-03-30T04:34:34.704Z,5.1
2019-03-30T04:35:34.779Z,5.1
2019-03-30T04:36:34.866Z,5.1
2019-03-30T04:37:34.918Z,5.1
2019-03-30T04:38:35.016Z,5.1
2019-03-30T04:39:35.004Z,5.1
2019-03-30T04:40:35.008Z,5.1
2019-03-30T04:41:35.061Z,5.1
2019-03-30T04:42:35.154Z,5.1
2019-03-30T04:43:35.337Z,5.1
2019-03-30T04:44:35.342Z,5.1
2019-03-30T04:45:35.358Z,5.1
2019-03-30T04:46:35.407Z,5.1
2019-03-30T04:47:35.427Z,5.1
2019-03-30T04:48:35.457Z,5.1
2019-03-30T04:49:35.523Z,5.1
2019-03-30T04:50:35.536Z,5.1
2019-03-30T04:51:35.599Z,5.1
2019-03-30T04:52:35.661Z,5.1
2019-03-30T04:53:35.722Z,5.1
2019-03-30T04:54:35.748Z,5.1
2019-03-30T04:55:35.776Z,5.1
2019-03-30T04:56:35.835Z,5.1
2019-03-30T04:57:35.897Z,5.1
2019-03-30T04:58:35.928Z,5.1
2019-03-30T04:59:35.983Z,5.1
2019-03-30T05:00:36.105Z,5.1
2019-03-30T05:01:36.110Z,5.1
2019-03-30T05:02:36.290Z,5.1
2019-03-30T05:03:36.199Z,5.1
2019-03-30T05:04:36.248Z,5.1
2019-03-30T05:05:36.333Z,5.1
2019-03-30T05:06:36.358Z,5.1
2019-03-30T05:07:36.475Z,5.1
2019-03-30T05:08:36.475Z,5.1
2019-03-30T05:09:36.585Z,5.1
2019-03-30T05:10:36.571Z,5.1
2019-03-30T05:11:36.633Z,5.1
2019-03-30T05:12:36.745Z,5.1
2019-03-30T05:13:36.765Z,5.1
2019-03-30T05:14:36.792Z,5.1
2019-03-30T05:15:36.930Z,5.1
2019-03-30T05:16:36.893Z,5.1
2019-03-30T05:17:46.663Z,5.1
2019-03-30T05:18:37.025Z,5.1
2019-03-30T05:19:37.062Z,5.1
2019-03-30T05:20:37.173Z,5.1
2019-03-30T05:21:37.224Z,5.1
2019-03-30T05:22:37.316Z,5.1
2019-03-30T05:23:37.319Z,5.1
2019-03-30T05:24:37.366Z,5.1
2019-03-30T05:25:37.470Z,5.1
2019-03-30T05:26:37.486Z,5.1
2019-03-30T05:27:37.616Z,5.1
2019-03-30T05:28:37.656Z,5.1
2019-03-30T05:29:37.677Z,5.1
2019-03-30T05:30:37.851Z,5.1
2019-03-30T05:31:37.794Z,5.1
2019-03-30T05:32:41.367Z,5.1
2019-03-30T05:33:37.919Z,5.1
2019-03-30T05:34:37.907Z,5.1
2019-03-30T05:35:37.994Z,5.1
2019-03-30T05:36:38.008Z,5.1
2019-03-30T05:37:38.083Z,5.1
2019-03-30T05:38:38.186Z,5.1
2019-03-30T05:39:38.196Z,5.1
2019-03-30T05:40:38.271Z,5.1
2019-03-30T05:41:38.322Z,5.1
2019-03-30T05:42:38.367Z,5.1
2019-03-30T05:43:38.476Z,5.1
2019-03-30T05:44:38.466Z,5.1
2019-03-30T05:45:38.621Z,5.2
2019-03-30T05:46:38.666Z,5.2
2019-03-30T05:47:38.676Z,5.2
2019-03-30T05:48:38.856Z,5.2
2019-03-30T05:49:38.766Z,5.2
2019-03-30T05:50:38.842Z,5.2
2019-03-30T05:51:38.930Z,5.2
2019-03-30T05:52:39.010Z,5.2
2019-03-30T05:53:39.083Z,5.2
2019-03-30T05:54:39.130Z,5.3
2019-03-30T05:55:39.158Z,5.3
2019-03-30T05:56:39.252Z,5.3
2019-03-30T05:57:39.326Z,5.3
2019-03-30T05:58:39.396Z,5.3
2019-03-30T05:59:39.445Z,5.3
2019-03-30T06:00:39.922Z,5.3
2019-03-30T06:01:39.688Z,5.3
2019-03-30T06:02:39.683Z,5.3
2019-03-30T06:03:39.740Z,5.3
2019-03-30T06:04:39.704Z,5.3
2019-03-30T06:05:39.753Z,5.3
2019-03-30T06:06:39.821Z,5.3
2019-03-30T06:07:39.880Z,5.3
2019-03-30T06:08:40.084Z,5.4
2019-03-30T06:09:39.974Z,5.4
2019-03-30T06:10:40.084Z,5.4
2019-03-30T06:11:40.121Z,5.4
2019-03-30T06:12:40.134Z,5.4
2019-03-30T06:13:40.257Z,5.4
2019-03-30T06:14:40.404Z,5.4
2019-03-30T06:15:40.775Z,5.4
2019-03-30T06:16:40.452Z,5.5
2019-03-30T06:17:40.429Z,5.5
2019-03-30T06:18:40.811Z,5.5
2019-03-30T06:19:40.452Z,5.6
2019-03-30T06:20:42.401Z,5.6
2019-03-30T06:21:40.573Z,5.6
2019-03-30T06:22:40.961Z,5.6
2019-03-30T06:23:41.435Z,5.6
2019-03-30T06:24:40.946Z,5.6
2019-03-30T06:25:40.758Z,5.7
2019-03-30T06:26:40.805Z,5.7
2019-03-30T06:27:40.807Z,5.7
2019-03-30T06:28:41.019Z,5.7
2019-03-30T06:29:41.029Z,5.7
2019-03-30T06:30:41.451Z,5.8
2019-03-30T06:31:41.428Z,5.8
2019-03-30T06:32:41.247Z,5.8
2019-03-30T06:33:41.283Z,5.8
2019-03-30T06:34:41.267Z,5.8
2019-03-30T06:35:41.351Z,5.8
2019-03-30T06:36:41.473Z,5.9
2019-03-30T06:37:41.475Z,5.9
2019-03-30T06:38:41.567Z,5.9
2019-03-30T06:39:41.632Z,5.9
2019-03-30T06:40:41.633Z,5.9
2019-03-30T06:41:41.687Z,5.9
2019-03-30T06:42:41.816Z,6
2019-03-30T06:43:41.808Z,6
2019-03-30T06:44:41.830Z,6
2019-03-30T06:45:41.912Z,6.1
2019-03-30T06:46:41.953Z,6.1
2019-03-30T06:47:41.968Z,6.1
2019-03-30T06:48:42.028Z,6.1
2019-03-30T06:49:42.054Z,6.1
2019-03-30T06:50:42.072Z,6.2
2019-03-30T06:51:42.139Z,6.2
2019-03-30T06:52:56.327Z,6.3
2019-03-30T06:53:46.329Z,6.3
2019-03-30T06:54:42.357Z,6.3
2019-03-30T06:55:42.358Z,6.3
2019-03-30T06:56:42.384Z,6.4
2019-03-30T06:57:42.411Z,6.4
2019-03-30T06:58:42.525Z,6.4
2019-03-30T06:59:42.551Z,6.4
2019-03-30T07:00:42.640Z,6.5
2019-03-30T07:01:42.703Z,6.5
2019-03-30T07:02:42.767Z,6.6
2019-03-30T07:03:42.766Z,6.6
2019-03-30T07:04:42.817Z,6.6
2019-03-30T07:05:42.856Z,6.6
2019-03-30T07:06:42.861Z,6.7
2019-03-30T07:07:42.929Z,6.7
2019-03-30T07:08:42.958Z,6.7
2019-03-30T07:09:42.984Z,6.8
2019-03-30T07:10:43.045Z,6.8
2019-03-30T07:11:43.099Z,6.8
2019-03-30T07:12:43.135Z,6.9
2019-03-30T07:13:43.216Z,6.9
2019-03-30T07:14:43.271Z,6.9
2019-03-30T07:15:43.360Z,6.9
2019-03-30T07:16:43.350Z,6.9
2019-03-30T07:17:43.407Z,7
2019-03-30T07:18:43.490Z,7
2019-03-30T07:19:43.531Z,7
2019-03-30T07:20:43.611Z,7.1
2019-03-30T07:21:43.671Z,7.1
2019-03-30T07:22:43.733Z,7.1
2019-03-30T07:23:43.815Z,7.1
2019-03-30T07:24:43.868Z,7.1
2019-03-30T07:25:43.912Z,7.1
2019-03-30T07:26:43.944Z,7.2
2019-03-30T07:27:43.997Z,7.2
2019-03-30T07:28:46.928Z,7.2
2019-03-30T07:29:44.137Z,7.2
2019-03-30T07:30:44.226Z,7.3
2019-03-30T07:31:44.211Z,7.3
2019-03-30T07:32:44.298Z,7.3
2019-03-30T07:33:44.307Z,7.3
2019-03-30T07:34:44.372Z,7.4
2019-03-30T07:35:44.420Z,7.4
2019-03-30T07:36:44.563Z,7.4
2019-03-30T07:37:44.522Z,7.4
2019-03-30T07:38:44.577Z,7.5
2019-03-30T07:39:44.654Z,7.5
2019-03-30T07:40:44.658Z,7.5
2019-03-30T07:41:44.729Z,7.6
2019-03-30T07:42:44.772Z,7.6
2019-03-30T07:43:44.838Z,7.6
2019-03-30T07:44:44.888Z,7.6
2019-03-30T07:45:44.929Z,7.7
2019-03-30T07:46:45.020Z,7.7
2019-03-30T07:47:45.041Z,7.7
2019-03-30T07:48:45.099Z,7.7
2019-03-30T07:49:45.114Z,7.7
2019-03-30T07:50:45.269Z,7.8
2019-03-30T07:51:45.749Z,7.8
2019-03-30T07:52:45.325Z,7.8
2019-03-30T07:53:45.395Z,7.8
2019-03-30T07:54:45.425Z,7.9
2019-03-30T07:55:45.549Z,7.9
2019-03-30T07:56:45.527Z,7.9
2019-03-30T07:57:45.582Z,7.9
2019-03-30T07:58:45.611Z,7.9
2019-03-30T07:59:45.649Z,7.9
2019-03-30T08:00:45.722Z,8
2019-03-30T08:01:45.765Z,8
2019-03-30T08:02:45.816Z,8
2019-03-30T08:03:45.892Z,8
2019-03-30T08:04:45.925Z,8.1
2019-03-30T08:05:46.002Z,8.1
2019-03-30T08:06:46.026Z,8.1
2019-03-30T08:07:46.097Z,8.1
2019-03-30T08:08:46.127Z,8.1
2019-03-30T08:09:46.213Z,8.1
2019-03-30T08:10:46.290Z,8.1
2019-03-30T08:11:46.316Z,8.1
2019-03-30T08:12:46.345Z,8.1
2019-03-30T08:13:46.395Z,8.2
2019-03-30T08:14:46.458Z,8.2
2019-03-30T08:15:46.636Z,8.2
2019-03-30T08:16:46.558Z,8.3
2019-03-30T08:17:46.624Z,8.3
2019-03-30T08:18:46.696Z,8.3
2019-03-30T08:19:50.179Z,8.4
2019-03-30T08:20:46.801Z,8.4
2019-03-30T08:21:46.848Z,8.4
2019-03-30T08:22:46.887Z,8.4
2019-03-30T08:23:46.966Z,8.4
2019-03-30T08:24:46.940Z,8.4
2019-03-30T08:25:47.100Z,8.4
2019-03-30T08:26:47.108Z,8.5
2019-03-30T08:27:47.103Z,8.6
2019-03-30T08:28:47.164Z,8.6
2019-03-30T08:29:47.210Z,8.6
2019-03-30T08:30:47.313Z,8.6
2019-03-30T08:31:49.866Z,8.7
2019-03-30T08:32:47.464Z,8.7
2019-03-30T08:33:47.450Z,8.8
2019-03-30T08:34:47.531Z,8.8
2019-03-30T08:35:47.600Z,8.9
2019-03-30T08:36:47.725Z,8.9
2019-03-30T08:37:47.685Z,9
2019-03-30T08:38:47.759Z,9.1
2019-03-30T08:39:47.787Z,9.1
2019-03-30T08:40:47.814Z,9.2
2019-03-30T08:41:47.897Z,9.2
2019-03-30T08:42:47.946Z,9.2
2019-03-30T08:43:48.017Z,9.3
2019-03-30T08:44:48.042Z,9.3
2019-03-30T08:45:48.981Z,9.3
2019-03-30T08:46:48.444Z,9.3
2019-03-30T08:47:48.197Z,9.4
2019-03-30T08:48:48.257Z,9.4
2019-03-30T08:49:48.305Z,9.5
2019-03-30T08:50:48.347Z,9.5
2019-03-30T08:51:48.777Z,9.5
2019-03-30T08:52:48.431Z,9.6
2019-03-30T08:53:54.255Z,9.6
2019-03-30T08:54:48.573Z,9.7
2019-03-30T08:55:48.629Z,9.8
2019-03-30T08:56:48.734Z,9.8
2019-03-30T08:57:48.724Z,9.8
2019-03-30T08:58:48.777Z,9.9
2019-03-30T08:59:48.837Z,9.9
2019-03-30T09:00:48.964Z,10
2019-03-30T09:01:48.995Z,10.1
2019-03-30T09:02:49.070Z,10.1
2019-03-30T09:03:49.074Z,10.1
2019-03-30T09:04:49.154Z,10.1
2019-03-30T09:05:49.206Z,10.2
2019-03-30T09:06:49.238Z,10.2
2019-03-30T09:07:49.330Z,10.2
2019-03-30T09:08:49.334Z,10.3
2019-03-30T09:09:49.358Z,10.3
2019-03-30T09:10:49.427Z,10.3
2019-03-30T09:11:49.464Z,10.3
2019-03-30T09:12:49.609Z,10.4
2019-03-30T09:13:49.777Z,10.4
2019-03-30T09:14:49.679Z,10.4
2019-03-30T09:15:49.743Z,10.4
2019-03-30T09:16:49.851Z,10.4
2019-03-30T09:17:49.897Z,10.4
2019-03-30T09:18:49.911Z,10.4
2019-03-30T09:19:49.973Z,10.4
2019-03-30T09:20:50.037Z,10.5
2019-03-30T09:21:50.094Z,10.4
2019-03-30T09:22:50.944Z,10.4
2019-03-30T09:23:50.280Z,10.4
2019-03-30T09:24:50.387Z,10.4
2019-03-30T09:25:50.290Z,10.5
2019-03-30T09:26:52.499Z,10.5
2019-03-30T09:27:50.429Z,10.5
2019-03-30T09:28:50.457Z,10.5
2019-03-30T09:29:50.519Z,10.5
2019-03-30T09:30:50.645Z,10.6
2019-03-30T09:31:50.926Z,10.6
2019-03-30T09:32:50.719Z,10.6
2019-03-30T09:33:50.702Z,10.6
2019-03-30T09:34:51.088Z,10.7
2019-03-30T09:35:55.364Z,10.7
2019-03-30T09:36:50.987Z,10.8
2019-03-30T09:37:50.931Z,10.8
2019-03-30T09:38:50.997Z,10.8
2019-03-30T09:39:51.081Z,10.9
2019-03-30T09:40:51.249Z,11
2019-03-30T09:41:51.172Z,11.1
2019-03-30T09:42:51.261Z,11.1
2019-03-30T09:43:51.434Z,11.2
2019-03-30T09:44:51.451Z,11.2
2019-03-30T09:45:52.921Z,11.3
2019-03-30T09:46:51.398Z,11.4
2019-03-30T09:47:51.745Z,11.4
2019-03-30T09:48:51.475Z,11.5
2019-03-30T09:49:51.526Z,11.6
2019-03-30T09:50:52.208Z,11.6
2019-03-30T09:51:52.526Z,11.7
2019-03-30T09:52:52.264Z,11.8
2019-03-30T09:53:51.802Z,11.9
2019-03-30T09:54:51.852Z,11.9
2019-03-30T09:55:52.025Z,12
2019-03-30T09:56:51.956Z,12.1
2019-03-30T09:57:52.065Z,12.1
2019-03-30T09:58:52.088Z,12.2
2019-03-30T09:59:52.403Z,12.3
2019-03-30T10:00:52.448Z,12.3
2019-03-30T10:01:52.283Z,12.4
2019-03-30T10:02:52.215Z,12.5
2019-03-30T10:03:52.619Z,12.6
2019-03-30T10:04:52.792Z,12.7
2019-03-30T10:05:52.710Z,12.7
2019-03-30T10:06:53.288Z,12.8
2019-03-30T10:07:53.806Z,12.9
2019-03-30T10:08:52.563Z,12.9
2019-03-30T10:09:52.652Z,12.9
2019-03-30T10:10:52.996Z,13
2019-03-30T10:11:52.897Z,13.1
2019-03-30T10:12:53.102Z,13.2
2019-03-30T10:13:53.321Z,13.2
2019-03-30T10:14:54.307Z,13.3
2019-03-30T10:15:53.058Z,13.3
2019-03-30T10:16:55.120Z,13.4
2019-03-30T10:17:53.378Z,13.4
2019-03-30T10:18:53.102Z,13.5
2019-03-30T10:20:03.921Z,13.5
2019-03-30T10:20:55.578Z,13.7
2019-03-30T10:21:53.419Z,13.8
2019-03-30T10:22:53.567Z,13.9
2019-03-30T10:23:54.206Z,13.9
2019-03-30T10:24:53.408Z,14
2019-03-30T10:25:54.001Z,14.1
2019-03-30T10:26:53.768Z,14.1
2019-03-30T10:27:54.610Z,14.2
2019-03-30T10:28:54.176Z,14.2
2019-03-30T10:29:54.341Z,14.3
2019-03-30T10:30:53.728Z,14.4
2019-03-30T10:31:54.033Z,14.4
2019-03-30T10:33:00.417Z,14.5
2019-03-30T10:33:54.035Z,14.5
2019-03-30T10:34:53.972Z,14.5
2019-03-30T10:35:54.046Z,14.7
2019-03-30T10:36:54.133Z,14.8
2019-03-30T10:37:54.141Z,14.8
2019-03-30T10:38:54.155Z,14.8
2019-03-30T10:39:54.983Z,14.9
2019-03-30T10:40:57.141Z,14.9
2019-03-30T10:41:57.570Z,15
2019-03-30T10:42:54.338Z,15.1
2019-03-30T10:43:55.335Z,15.1
2019-03-30T10:44:55.623Z,15.2
2019-03-30T10:45:55.650Z,15.3
2019-03-30T10:46:54.654Z,15.4
2019-03-30T10:47:56.709Z,15.5
2019-03-30T10:48:54.637Z,15.6
2019-03-30T10:49:54.788Z,15.6
2019-03-30T10:50:55.011Z,15.8
2019-03-30T10:51:57.222Z,15.8
2019-03-30T10:52:55.166Z,15.9
2019-03-30T10:53:55.324Z,15.9
2019-03-30T10:54:55.900Z,15.9
2019-03-30T10:55:55.693Z,16
2019-03-30T10:56:56.479Z,16.1
2019-03-30T10:57:58.533Z,16.2
2019-03-30T10:58:55.972Z,16.2
2019-03-30T10:59:56.208Z,16.3
2019-03-30T11:00:56.710Z,16.4
2019-03-30T11:02:03.437Z,16.5
2019-03-30T11:02:56.828Z,16.5
2019-03-30T11:03:55.868Z,16.7
2019-03-30T11:04:56.309Z,16.8
2019-03-30T11:06:01.545Z,16.9
2019-03-30T11:06:57.036Z,16.8
2019-03-30T11:07:56.689Z,16.8
2019-03-30T11:08:56.713Z,16.9
2019-03-30T11:09:56.959Z,16.9
2019-03-30T11:10:56.264Z,17
2019-03-30T11:11:57.279Z,17.1
2019-03-30T11:12:57.791Z,17.1
2019-03-30T11:13:56.030Z,17.1
2019-03-30T11:14:57.672Z,17.2
2019-03-30T11:15:57.532Z,17.4
2019-03-30T11:16:56.433Z,17.4
2019-03-30T11:17:56.230Z,17.4
2019-03-30T11:18:56.388Z,17.4
2019-03-30T11:19:56.311Z,17.5
2019-03-30T11:20:56.381Z,17.6
2019-03-30T11:21:56.461Z,17.6
2019-03-30T11:22:56.431Z,17.6
2019-03-30T11:23:58.428Z,17.7
2019-03-30T11:25:07.009Z,17.7
2019-03-30T11:25:56.594Z,17.7
2019-03-30T11:26:56.748Z,17.8
2019-03-30T11:27:56.770Z,17.8
2019-03-30T11:28:57.046Z,17.9
2019-03-30T11:29:56.851Z,17.9
2019-03-30T11:30:56.931Z,18
2019-03-30T11:31:57.012Z,18
2019-03-30T11:32:57.032Z,18.1
2019-03-30T11:33:57.052Z,18.1
2019-03-30T11:34:57.207Z,18.1
2019-03-30T11:35:57.212Z,18.1
2019-03-30T11:36:57.252Z,18.2
2019-03-30T11:37:57.354Z,18.2
2019-03-30T11:38:57.387Z,18.3
2019-03-30T11:39:57.601Z,18.2
2019-03-30T11:40:57.528Z,18.3
2019-03-30T11:41:57.604Z,18.3
2019-03-30T11:42:57.617Z,18.3
2019-03-30T11:43:57.705Z,18.4
2019-03-30T11:44:57.746Z,18.5
2019-03-30T11:45:57.819Z,18.6
2019-03-30T11:46:57.869Z,18.5
2019-03-30T11:47:57.909Z,18.5
2019-03-30T11:48:57.938Z,18.5
2019-03-30T11:49:57.982Z,18.6
2019-03-30T11:50:58.021Z,18.6
2019-03-30T11:51:58.091Z,18.6
2019-03-30T11:52:58.117Z,18.7
2019-03-30T11:54:00.259Z,18.9
2019-03-30T11:54:58.227Z,19
2019-03-30T11:55:58.304Z,19
2019-03-30T11:56:58.426Z,19
2019-03-30T11:57:58.423Z,19.1
2019-03-30T11:58:58.476Z,19.1
2019-03-30T11:59:58.501Z,19.1
2019-03-30T12:00:58.608Z,19.2
2019-03-30T12:01:58.595Z,19.2
2019-03-30T12:02:59.684Z,19.2
2019-03-30T12:03:58.700Z,19.3
2019-03-30T12:04:58.743Z,19.3
2019-03-30T12:05:58.839Z,19.5
2019-03-30T12:06:58.886Z,19.6
2019-03-30T12:07:58.929Z,19.7
2019-03-30T12:08:58.999Z,19.7
2019-03-30T12:09:59.074Z,19.7
2019-03-30T12:10:59.140Z,19.6
2019-03-30T12:11:59.185Z,19.5
2019-03-30T12:12:59.225Z,19.6
2019-03-30T12:13:59.274Z,19.6
2019-03-30T12:14:59.366Z,19.7
2019-03-30T12:15:59.427Z,19.8
2019-03-30T12:16:59.417Z,19.8
2019-03-30T12:17:59.467Z,19.7
2019-03-30T12:18:59.553Z,19.8
2019-03-30T12:19:59.601Z,19.8
2019-03-30T12:20:59.633Z,19.8
2019-03-30T12:21:59.735Z,19.8
2019-03-30T12:22:59.775Z,19.8
2019-03-30T12:23:59.869Z,19.9
2019-03-30T12:24:59.886Z,19.8
2019-03-30T12:25:59.954Z,20
2019-03-30T12:27:00.029Z,19.9
2019-03-30T12:28:00.044Z,19.9
2019-03-30T12:29:00.558Z,19.9
2019-03-30T12:30:00.559Z,20
2019-03-30T12:31:11.017Z,20
2019-03-30T12:32:00.561Z,20.1
2019-03-30T12:33:00.608Z,20.1
2019-03-30T12:34:00.745Z,20.2
2019-03-30T12:35:00.821Z,20.3
2019-03-30T12:36:00.517Z,20.4
2019-03-30T12:37:00.623Z,20.4
2019-03-30T12:38:00.632Z,20.5
2019-03-30T12:39:04.130Z,20.5
2019-03-30T12:40:01.531Z,20.5
2019-03-30T12:41:03.197Z,20.5
2019-03-30T12:42:00.807Z,20.5
2019-03-30T12:43:00.881Z,20.5
2019-03-30T12:44:00.883Z,20.5
2019-03-30T12:45:01.371Z,20.5
2019-03-30T12:46:11.081Z,20.6
2019-03-30T12:47:01.061Z,20.7
2019-03-30T12:48:01.135Z,20.7
2019-03-30T12:49:01.229Z,20.6
2019-03-30T12:50:01.307Z,20.7
2019-03-30T12:51:01.469Z,20.8
2019-03-30T12:52:01.370Z,20.9
2019-03-30T12:53:01.607Z,20.9
2019-03-30T12:54:01.500Z,20.9
2019-03-30T12:55:02.434Z,21
2019-03-30T12:56:02.194Z,21
2019-03-30T12:57:02.036Z,21
2019-03-30T12:58:02.277Z,20.9
2019-03-30T12:59:03.076Z,20.9
2019-03-30T13:00:01.915Z,21.1
2019-03-30T13:01:01.932Z,21.2
2019-03-30T13:02:02.078Z,21.2
2019-03-30T13:03:02.705Z,21.2
2019-03-30T13:04:02.122Z,21.3
2019-03-30T13:05:02.650Z,21.2
2019-03-30T13:06:02.471Z,21.1
2019-03-30T13:07:03.070Z,21.1
2019-03-30T13:08:02.317Z,21.2
2019-03-30T13:09:02.385Z,21.1
2019-03-30T13:10:02.496Z,21.2
2019-03-30T13:11:02.535Z,21.2
2019-03-30T13:12:02.561Z,21.3
2019-03-30T13:13:02.989Z,21.4
2019-03-30T13:14:02.707Z,21.3
2019-03-30T13:15:04.218Z,21.5
2019-03-30T13:16:03.103Z,21.5
2019-03-30T13:17:02.839Z,21.5
2019-03-30T13:18:02.924Z,21.6
2019-03-30T13:19:02.970Z,21.6
2019-03-30T13:20:03.029Z,21.6
2019-03-30T13:21:03.075Z,21.5
2019-03-30T13:22:03.394Z,21.6
2019-03-30T13:23:03.189Z,21.6
2019-03-30T13:24:03.231Z,21.7
2019-03-30T13:25:03.332Z,21.7
2019-03-30T13:26:04.225Z,21.7
2019-03-30T13:27:03.752Z,21.6
2019-03-30T13:28:03.530Z,21.5
2019-03-30T13:29:03.689Z,21.5
2019-03-30T13:30:03.520Z,21.4
2019-03-30T13:31:03.596Z,21.5
2019-03-30T13:32:03.640Z,21.4
2019-03-30T13:33:03.669Z,21.5
2019-03-30T13:34:03.753Z,21.6
2019-03-30T13:35:03.794Z,21.6
2019-03-30T13:36:04.467Z,21.6
2019-03-30T13:37:05.322Z,21.6
2019-03-30T13:38:04.254Z,21.6
2019-03-30T13:39:04.418Z,21.5